sensor_id;sensor_type;location;lat;lon;timestamp;pressure;altitude;pressure_sealevel;temperature;humidity
38716;BME280;24833;49.324;8.694;2023-07-28T00:01:10;99065.22;;;17.36;96.21
38716;BME280;24833;49.324;8.694;2023-07-28T00:03:37;99055.25;;;17.37;96.05
38716;BME280;24833;49.324;8.694;2023-07-28T00:06:04;99055.25;;;17.37;95.95
38716;BME280;24833;49.324;8.694;2023-07-28T00:08:31;99051.47;;;17.38;96.56
38716;BME280;24833;49.324;8.694;2023-07-28T00:10:58;99055.81;;;17.39;97.69
38716;BME280;24833;49.324;8.694;2023-07-28T00:13:25;99064.16;;;17.37;96.79
38716;BME280;24833;49.324;8.694;2023-07-28T00:15:52;99066.03;;;17.37;96.18
38716;BME280;24833;49.324;8.694;2023-07-28T00:18:19;99064.16;;;17.37;96.34
38716;BME280;24833;49.324;8.694;2023-07-28T00:20:48;99059.31;;;17.39;98.09
38716;BME280;24833;49.324;8.694;2023-07-28T00:23:15;99056.88;;;17.38;97.72
38716;BME280;24833;49.324;8.694;2023-07-28T00:25:42;99064.97;;;17.38;97.44
38716;BME280;24833;49.324;8.694;2023-07-28T00:28:09;99063.34;;;17.37;97.17
38716;BME280;24833;49.324;8.694;2023-07-28T00:30:36;99066.03;;;17.37;97.34
38716;BME280;24833;49.324;8.694;2023-07-28T00:33:03;99070.63;;;17.36;97.45
38716;BME280;24833;49.324;8.694;2023-07-28T00:35:30;99060.63;;;17.37;97.82
38716;BME280;24833;49.324;8.694;2023-07-28T00:37:57;99055.25;;;17.37;98.04
38716;BME280;24833;49.324;8.694;2023-07-28T00:40:25;99060.63;;;17.37;98.22
38716;BME280;24833;49.324;8.694;2023-07-28T00:42:52;99061.72;;;17.36;97.38
38716;BME280;24833;49.324;8.694;2023-07-28T00:45:20;99053.63;;;17.36;97.10
38716;BME280;24833;49.324;8.694;2023-07-28T00:47:48;99048.22;;;17.36;97.36
38716;BME280;24833;49.324;8.694;2023-07-28T00:50:15;99047.13;;;17.37;97.81
38716;BME280;24833;49.324;8.694;2023-07-28T00:52:43;99053.13;;;17.39;98.18
38716;BME280;24833;49.324;8.694;2023-07-28T00:55:10;99039.84;;;17.37;98.00
38716;BME280;24833;49.324;8.694;2023-07-28T00:57:37;99039.84;;;17.37;97.88
38716;BME280;24833;49.324;8.694;2023-07-28T01:00:06;99038.22;;;17.36;97.37
38716;BME280;24833;49.324;8.694;2023-07-28T01:02:34;99042.81;;;17.36;97.21
38716;BME280;24833;49.324;8.694;2023-07-28T01:05:02;99042.00;;;17.35;97.17
38716;BME280;24833;49.324;8.694;2023-07-28T01:10:32;99044.44;;;17.37;96.87
38716;BME280;24833;49.324;8.694;2023-07-28T01:12:59;99046.06;;;17.38;97.51
38716;BME280;24833;49.324;8.694;2023-07-28T01:15:26;99043.13;;;17.39;96.80
38716;BME280;24833;49.324;8.694;2023-07-28T01:17:53;99049.34;;;17.40;97.06
38716;BME280;24833;49.324;8.694;2023-07-28T01:20:24;99042.88;;;17.41;96.88
38716;BME280;24833;49.324;8.694;2023-07-28T01:23:20;99035.56;;;17.41;97.30
38716;BME280;24833;49.324;8.694;2023-07-28T01:26:08;99035.31;;;17.43;97.05
38716;BME280;24833;49.324;8.694;2023-07-28T01:28:35;99034.25;;;17.44;97.03
38716;BME280;24833;49.324;8.694;2023-07-28T01:31:05;99036.94;;;17.44;97.20
38716;BME280;24833;49.324;8.694;2023-07-28T01:33:33;99036.94;;;17.44;96.90
38716;BME280;24833;49.324;8.694;2023-07-28T01:36:00;99031.53;;;17.44;97.00
38716;BME280;24833;49.324;8.694;2023-07-28T01:38:28;99033.44;;;17.43;97.00
38716;BME280;24833;49.324;8.694;2023-07-28T01:40:55;99033.44;;;17.43;96.91
38716;BME280;24833;49.324;8.694;2023-07-28T01:43:22;99035.03;;;17.44;96.79
38716;BME280;24833;49.324;8.694;2023-07-28T01:45:50;99030.47;;;17.45;97.11
38716;BME280;24833;49.324;8.694;2023-07-28T01:48:17;99018.03;;;17.44;97.12
38716;BME280;24833;49.324;8.694;2023-07-28T01:50:44;99018.03;;;17.44;96.86
38716;BME280;24833;49.324;8.694;2023-07-28T01:53:11;99030.47;;;17.45;97.12
38716;BME280;24833;49.324;8.694;2023-07-28T01:55:38;99029.66;;;17.44;96.72
38716;BME280;24833;49.324;8.694;2023-07-28T01:58:05;99035.88;;;17.45;97.02
38716;BME280;24833;49.324;8.694;2023-07-28T02:00:32;99039.63;;;17.44;97.04
38716;BME280;24833;49.324;8.694;2023-07-28T02:03:00;99033.16;;;17.45;97.28
38716;BME280;24833;49.324;8.694;2023-07-28T02:05:30;99035.03;;;17.44;97.07
38716;BME280;24833;49.324;8.694;2023-07-28T02:07:57;99035.88;;;17.45;96.97
38716;BME280;24833;49.324;8.694;2023-07-28T02:10:28;99029.66;;;17.44;97.01
38716;BME280;24833;49.324;8.694;2023-07-28T02:12:55;99038.81;;;17.43;97.43
38716;BME280;24833;49.324;8.694;2023-07-28T02:15:22;99039.63;;;17.44;97.03
38716;BME280;24833;49.324;8.694;2023-07-28T02:17:49;99028.03;;;17.43;96.95
38716;BME280;24833;49.324;8.694;2023-07-28T02:20:22;99031.53;;;17.44;96.95
38716;BME280;24833;49.324;8.694;2023-07-28T02:22:49;99030.47;;;17.45;97.03
38716;BME280;24833;49.324;8.694;2023-07-28T02:25:16;99035.88;;;17.45;97.12
38716;BME280;24833;49.324;8.694;2023-07-28T02:27:44;99031.31;;;17.46;96.95
38716;BME280;24833;49.324;8.694;2023-07-28T02:30:11;99024.00;;;17.46;97.11
38716;BME280;24833;49.324;8.694;2023-07-28T02:32:38;99017.53;;;17.47;97.06
38716;BME280;24833;49.324;8.694;2023-07-28T02:35:05;99032.66;;;17.48;96.94
38716;BME280;24833;49.324;8.694;2023-07-28T02:37:32;99010.25;;;17.48;96.95
38716;BME280;24833;49.324;8.694;2023-07-28T02:39:59;99023.47;;;17.49;97.13
38716;BME280;24833;49.324;8.694;2023-07-28T02:42:26;99026.19;;;17.49;97.71
38716;BME280;24833;49.324;8.694;2023-07-28T02:44:53;99023.47;;;17.49;97.31
38716;BME280;24833;49.324;8.694;2023-07-28T02:47:20;99023.75;;;17.48;97.08
38716;BME280;24833;49.324;8.694;2023-07-28T02:49:48;99040.75;;;17.48;97.32
38716;BME280;24833;49.324;8.694;2023-07-28T02:52:15;99034.53;;;17.48;97.13
38716;BME280;24833;49.324;8.694;2023-07-28T02:54:42;99034.81;;;17.46;97.04
38716;BME280;24833;49.324;8.694;2023-07-28T02:57:09;99041.84;;;17.47;96.83
38716;BME280;24833;49.324;8.694;2023-07-28T02:59:38;99028.34;;;17.47;97.28
38716;BME280;24833;49.324;8.694;2023-07-28T03:02:06;99035.88;;;17.45;97.29
38716;BME280;24833;49.324;8.694;2023-07-28T03:04:33;99045.63;;;17.46;97.19
38716;BME280;24833;49.324;8.694;2023-07-28T03:07:15;99046.66;;;17.45;97.09
38716;BME280;24833;49.324;8.694;2023-07-28T03:09:45;99043.72;;;17.47;97.54
38716;BME280;24833;49.324;8.694;2023-07-28T03:12:13;99048.31;;;17.46;97.55
38716;BME280;24833;49.324;8.694;2023-07-28T03:14:40;99049.13;;;17.47;97.20
38716;BME280;24833;49.324;8.694;2023-07-28T03:17:07;99052.63;;;17.47;98.58
38716;BME280;24833;49.324;8.694;2023-07-28T03:19:34;99056.16;;;17.48;98.30
38716;BME280;24833;49.324;8.694;2023-07-28T03:22:01;99061.28;;;17.49;99.57
38716;BME280;24833;49.324;8.694;2023-07-28T03:24:28;99059.38;;;17.50;99.40
38716;BME280;24833;49.324;8.694;2023-07-28T03:26:56;99051.56;;;17.48;99.23
38716;BME280;24833;49.324;8.694;2023-07-28T03:29:23;99050.22;;;17.51;100.00
38716;BME280;24833;49.324;8.694;2023-07-28T03:31:50;99038.06;;;17.48;99.37
38716;BME280;24833;49.324;8.694;2023-07-28T03:34:18;99040.75;;;17.48;99.22
38716;BME280;24833;49.324;8.694;2023-07-28T03:36:46;99043.72;;;17.47;99.05
38716;BME280;24833;49.324;8.694;2023-07-28T03:39:14;99058.31;;;17.46;98.54
38716;BME280;24833;49.324;8.694;2023-07-28T03:41:43;99060.16;;;17.45;98.25
38716;BME280;24833;49.324;8.694;2023-07-28T03:44:10;99056.91;;;17.43;98.30
38716;BME280;24833;49.324;8.694;2023-07-28T03:46:37;99053.41;;;17.42;98.29
38716;BME280;24833;49.324;8.694;2023-07-28T03:49:05;99057.44;;;17.40;98.18
38716;BME280;24833;49.324;8.694;2023-07-28T03:51:32;99063.91;;;17.39;98.41
38716;BME280;24833;49.324;8.694;2023-07-28T03:53:59;99049.84;;;17.37;98.61
38716;BME280;24833;49.324;8.694;2023-07-28T03:56:26;99049.03;;;17.36;99.88
38716;BME280;24833;49.324;8.694;2023-07-28T03:58:55;99043.34;;;17.33;99.91
38716;BME280;24833;49.324;8.694;2023-07-28T04:01:22;99050.88;;;17.31;99.98
38716;BME280;24833;49.324;8.694;2023-07-28T04:03:51;99050.06;;;17.30;100.00
38716;BME280;24833;49.324;8.694;2023-07-28T04:06:18;99053.03;;;17.29;100.00
38716;BME280;24833;49.324;8.694;2023-07-28T04:08:45;99057.88;;;17.27;100.00
38716;BME280;24833;49.324;8.694;2023-07-28T04:11:12;99067.28;;;17.24;100.00
38716;BME280;24833;49.324;8.694;2023-07-28T04:13:40;99077.25;;;17.24;100.00
38716;BME280;24833;49.324;8.694;2023-07-28T04:16:07;99080.47;;;17.21;100.00
38716;BME280;24833;49.324;8.694;2023-07-28T04:18:35;99077.78;;;17.21;100.00
38716;BME280;24833;49.324;8.694;2023-07-28T04:21:02;99077.78;;;17.21;100.00
38716;BME280;24833;49.324;8.694;2023-07-28T04:23:29;99076.72;;;17.22;100.00
38716;BME280;24833;49.324;8.694;2023-07-28T04:25:58;99079.94;;;17.19;100.00
38716;BME280;24833;49.324;8.694;2023-07-28T04:28:28;99074.53;;;17.19;100.00
38716;BME280;24833;49.324;8.694;2023-07-28T04:30:55;99088.53;;;17.15;100.00
38716;BME280;24833;49.324;8.694;2023-07-28T04:33:44;99079.88;;;17.13;100.00
38716;BME280;24833;49.324;8.694;2023-07-28T04:36:11;99082.56;;;17.13;100.00
38716;BME280;24833;49.324;8.694;2023-07-28T04:38:39;99084.69;;;17.11;100.00
38716;BME280;24833;49.324;8.694;2023-07-28T04:41:06;99083.06;;;17.10;100.00
38716;BME280;24833;49.324;8.694;2023-07-28T04:43:46;99077.66;;;17.10;100.00
38716;BME280;24833;49.324;8.694;2023-07-28T04:46:13;99087.38;;;17.11;100.00
38716;BME280;24833;49.324;8.694;2023-07-28T04:48:42;99073.91;;;17.11;100.00
38716;BME280;24833;49.324;8.694;2023-07-28T04:51:32;99084.16;;;17.09;100.00
38716;BME280;24833;49.324;8.694;2023-07-28T04:54:21;99094.66;;;17.06;100.00
38716;BME280;24833;49.324;8.694;2023-07-28T04:56:48;99097.34;;;17.06;100.00
38716;BME280;24833;49.324;8.694;2023-07-28T04:59:25;99100.28;;;17.04;100.00
38716;BME280;24833;49.324;8.694;2023-07-28T05:01:52;99099.22;;;17.05;100.00
38716;BME280;24833;49.324;8.694;2023-07-28T05:04:19;99102.16;;;17.04;100.00
38716;BME280;24833;49.324;8.694;2023-07-28T05:06:47;99100.28;;;17.04;100.00
38716;BME280;24833;49.324;8.694;2023-07-28T05:09:14;99098.66;;;17.03;100.00
38716;BME280;24833;49.324;8.694;2023-07-28T05:11:42;99102.97;;;17.04;100.00
38716;BME280;24833;49.324;8.694;2023-07-28T05:14:09;99103.78;;;17.05;100.00
38716;BME280;24833;49.324;8.694;2023-07-28T05:16:36;99097.56;;;17.04;100.00
38716;BME280;24833;49.324;8.694;2023-07-28T05:19:22;99103.56;;;17.06;100.00
38716;BME280;24833;49.324;8.694;2023-07-28T05:21:52;99095.47;;;17.06;100.00
38716;BME280;24833;49.324;8.694;2023-07-28T05:24:24;99097.09;;;17.07;100.00
38716;BME280;24833;49.324;8.694;2023-07-28T05:26:51;99098.16;;;17.06;100.00
38716;BME280;24833;49.324;8.694;2023-07-28T05:29:19;99101.41;;;17.08;100.00
38716;BME280;24833;49.324;8.694;2023-07-28T05:31:47;99104.09;;;17.08;100.00
38716;BME280;24833;49.324;8.694;2023-07-28T05:34:22;99110.06;;;17.10;100.00
38716;BME280;24833;49.324;8.694;2023-07-28T05:36:49;99107.94;;;17.12;100.00
38716;BME280;24833;49.324;8.694;2023-07-28T05:39:17;99119.28;;;17.14;100.00
38716;BME280;24833;49.324;8.694;2023-07-28T05:41:45;99120.34;;;17.13;100.00
38716;BME280;24833;49.324;8.694;2023-07-28T05:44:14;99117.66;;;17.13;100.00
38716;BME280;24833;49.324;8.694;2023-07-28T05:46:41;99116.56;;;17.14;100.00
38716;BME280;24833;49.324;8.694;2023-07-28T05:49:08;99124.66;;;17.14;100.00
38716;BME280;24833;49.324;8.694;2023-07-28T05:51:35;99122.78;;;17.15;100.00
38716;BME280;24833;49.324;8.694;2023-07-28T05:54:03;99117.66;;;17.13;100.00
38716;BME280;24833;49.324;8.694;2023-07-28T05:56:30;99116.56;;;17.14;100.00
38716;BME280;24833;49.324;8.694;2023-07-28T05:58:57;99117.41;;;17.15;100.00
38716;BME280;24833;49.324;8.694;2023-07-28T06:01:24;99118.47;;;17.14;100.00
38716;BME280;24833;49.324;8.694;2023-07-28T06:04:16;99117.91;;;17.12;100.00
38716;BME280;24833;49.324;8.694;2023-07-28T06:06:47;99120.84;;;17.10;100.00
38716;BME280;24833;49.324;8.694;2023-07-28T06:09:16;99127.31;;;17.09;100.00
38716;BME280;24833;49.324;8.694;2023-07-28T06:11:44;99128.38;;;17.08;100.00
38716;BME280;24833;49.324;8.694;2023-07-28T06:14:12;99130.53;;;17.06;100.00
38716;BME280;24833;49.324;8.694;2023-07-28T06:16:39;99134.84;;;17.07;100.00
38716;BME280;24833;49.324;8.694;2023-07-28T06:19:06;99132.41;;;17.06;100.00
38716;BME280;24833;49.324;8.694;2023-07-28T06:21:36;99137.56;;;17.07;100.00
38716;BME280;24833;49.324;8.694;2023-07-28T06:24:04;99133.47;;;17.05;100.00
38716;BME280;24833;49.324;8.694;2023-07-28T06:26:33;99142.63;;;17.04;100.00
38716;BME280;24833;49.324;8.694;2023-07-28T06:29:03;99144.25;;;17.05;100.00
38716;BME280;24833;49.324;8.694;2023-07-28T06:31:30;99139.69;;;17.05;100.00
38716;BME280;24833;49.324;8.694;2023-07-28T06:33:58;99149.41;;;17.06;100.00
38716;BME280;24833;49.324;8.694;2023-07-28T06:36:25;99158.31;;;17.07;100.00
38716;BME280;24833;49.324;8.694;2023-07-28T06:38:56;99157.25;;;17.08;100.00
38716;BME280;24833;49.324;8.694;2023-07-28T06:41:23;99159.69;;;17.09;100.00
38716;BME280;24833;49.324;8.694;2023-07-28T06:43:57;99164.00;;;17.10;100.00
38716;BME280;24833;49.324;8.694;2023-07-28T06:46:24;99164.59;;;17.12;100.00
38716;BME280;24833;49.324;8.694;2023-07-28T06:48:51;99163.53;;;17.13;100.00
38716;BME280;24833;49.324;8.694;2023-07-28T06:51:20;99166.22;;;17.13;100.00
38716;BME280;24833;49.324;8.694;2023-07-28T06:53:47;99179.19;;;17.16;100.00
38716;BME280;24833;49.324;8.694;2023-07-28T06:56:14;99178.13;;;17.17;100.00
38716;BME280;24833;49.324;8.694;2023-07-28T06:58:43;99184.09;;;17.20;100.00
38716;BME280;24833;49.324;8.694;2023-07-28T07:01:21;99181.94;;;17.22;100.00
38716;BME280;24833;49.324;8.694;2023-07-28T07:03:49;99188.97;;;17.23;100.00
38716;BME280;24833;49.324;8.694;2023-07-28T07:06:16;99184.94;;;17.25;100.00
38716;BME280;24833;49.324;8.694;2023-07-28T07:08:45;99182.81;;;17.27;100.00
38716;BME280;24833;49.324;8.694;2023-07-28T07:11:12;99185.53;;;17.27;100.00
38716;BME280;24833;49.324;8.694;2023-07-28T07:13:40;99192.28;;;17.30;100.00
38716;BME280;24833;49.324;8.694;2023-07-28T07:16:16;99187.44;;;17.32;100.00
38716;BME280;24833;49.324;8.694;2023-07-28T07:18:53;99196.13;;;17.34;100.00
38716;BME280;24833;49.324;8.694;2023-07-28T07:21:20;99195.34;;;17.38;100.00
38716;BME280;24833;49.324;8.694;2023-07-28T07:23:47;99203.22;;;17.40;100.00
38716;BME280;24833;49.324;8.694;2023-07-28T07:26:26;99199.44;;;17.41;100.00
38716;BME280;24833;49.324;8.694;2023-07-28T07:28:53;99198.91;;;17.44;100.00
38716;BME280;24833;49.324;8.694;2023-07-28T07:31:20;99204.91;;;17.46;100.00
38716;BME280;24833;49.324;8.694;2023-07-28T07:33:48;99203.56;;;17.49;100.00
38716;BME280;24833;49.324;8.694;2023-07-28T07:36:16;99204.09;;;17.51;100.00
38716;BME280;24833;49.324;8.694;2023-07-28T07:38:44;99212.53;;;17.54;100.00
38716;BME280;24833;49.324;8.694;2023-07-28T07:41:14;99211.72;;;17.54;100.00
38716;BME280;24833;49.324;8.694;2023-07-28T07:43:47;99214.47;;;17.59;100.00
38716;BME280;24833;49.324;8.694;2023-07-28T07:46:15;99217.72;;;17.61;100.00
38716;BME280;24833;49.324;8.694;2023-07-28T07:48:43;99220.16;;;17.62;100.00
38716;BME280;24833;49.324;8.694;2023-07-28T07:51:10;99227.19;;;17.63;100.00
38716;BME280;24833;49.324;8.694;2023-07-28T07:53:38;99227.78;;;17.65;100.00
38716;BME280;24833;49.324;8.694;2023-07-28T07:56:06;99222.91;;;17.67;100.00
38716;BME280;24833;49.324;8.694;2023-07-28T07:58:34;99236.16;;;17.69;100.00
38716;BME280;24833;49.324;8.694;2023-07-28T08:01:02;99236.97;;;17.69;100.00
38716;BME280;24833;49.324;8.694;2023-07-28T08:03:30;99225.94;;;17.71;100.00
38716;BME280;24833;49.324;8.694;2023-07-28T08:05:58;99229.44;;;17.72;100.00
38716;BME280;24833;49.324;8.694;2023-07-28T08:08:25;99233.00;;;17.72;100.00
38716;BME280;24833;49.324;8.694;2023-07-28T08:10:54;99237.56;;;17.72;100.00
38716;BME280;24833;49.324;8.694;2023-07-28T08:13:22;99238.41;;;17.72;100.00
38716;BME280;24833;49.324;8.694;2023-07-28T08:15:49;99242.16;;;17.71;100.00
38716;BME280;24833;49.324;8.694;2023-07-28T08:18:16;99242.16;;;17.71;100.00
38716;BME280;24833;49.324;8.694;2023-07-28T08:20:43;99238.59;;;17.70;100.00
38716;BME280;24833;49.324;8.694;2023-07-28T08:23:10;99244.00;;;17.70;100.00
38716;BME280;24833;49.324;8.694;2023-07-28T08:25:37;99240.25;;;17.72;100.00
38716;BME280;24833;49.324;8.694;2023-07-28T08:28:04;99247.31;;;17.73;100.00
38716;BME280;24833;49.324;8.694;2023-07-28T08:30:32;99245.16;;;17.75;100.00
38716;BME280;24833;49.324;8.694;2023-07-28T08:33:00;99250.03;;;17.78;100.00
38716;BME280;24833;49.324;8.694;2023-07-28T08:35:27;99250.38;;;17.81;100.00
38716;BME280;24833;49.324;8.694;2023-07-28T08:37:54;99253.34;;;17.85;100.00
38716;BME280;24833;49.324;8.694;2023-07-28T08:40:21;99253.41;;;17.90;100.00
38716;BME280;24833;49.324;8.694;2023-07-28T08:42:49;99251.84;;;17.94;100.00
38716;BME280;24833;49.324;8.694;2023-07-28T08:45:19;99254.00;;;17.97;100.00
38716;BME280;24833;49.324;8.694;2023-07-28T08:47:46;99257.28;;;17.99;100.00
38716;BME280;24833;49.324;8.694;2023-07-28T08:50:13;99255.13;;;18.01;100.00
38716;BME280;24833;49.324;8.694;2023-07-28T08:52:40;99257.56;;;18.03;100.00
38716;BME280;24833;49.324;8.694;2023-07-28T08:55:08;99255.19;;;18.06;100.00
38716;BME280;24833;49.324;8.694;2023-07-28T08:57:36;99258.44;;;18.08;100.00
38716;BME280;24833;49.324;8.694;2023-07-28T09:00:10;99269.53;;;18.12;100.00
38716;BME280;24833;49.324;8.694;2023-07-28T09:02:41;99265.53;;;18.14;100.00
38716;BME280;24833;49.324;8.694;2023-07-28T09:05:19;99265.00;;;18.17;100.00
38716;BME280;24833;49.324;8.694;2023-07-28T09:07:47;99266.13;;;18.21;100.00
38716;BME280;24833;49.324;8.694;2023-07-28T09:10:14;99270.19;;;18.24;100.00
38716;BME280;24833;49.324;8.694;2023-07-28T09:12:47;99266.72;;;18.29;100.00
38716;BME280;24833;49.324;8.694;2023-07-28T09:15:15;99262.44;;;18.33;100.00
38716;BME280;24833;49.324;8.694;2023-07-28T09:17:46;99263.25;;;18.38;100.00
38716;BME280;24833;49.324;8.694;2023-07-28T09:20:15;99261.69;;;18.42;100.00
38716;BME280;24833;49.324;8.694;2023-07-28T09:22:46;99265.25;;;18.48;100.00
38716;BME280;24833;49.324;8.694;2023-07-28T09:25:15;99265.81;;;18.55;100.00
38716;BME280;24833;49.324;8.694;2023-07-28T09:27:51;99256.13;;;18.59;100.00
38716;BME280;24833;49.324;8.694;2023-07-28T09:30:19;99261.53;;;18.64;100.00
38716;BME280;24833;49.324;8.694;2023-07-28T09:32:48;99253.50;;;18.69;100.00
38716;BME280;24833;49.324;8.694;2023-07-28T09:35:17;99258.13;;;18.74;100.00
38716;BME280;24833;49.324;8.694;2023-07-28T09:37:48;99258.16;;;18.79;100.00
38716;BME280;24833;49.324;8.694;2023-07-28T09:40:21;99269.81;;;18.85;100.00
38716;BME280;24833;49.324;8.694;2023-07-28T09:42:50;99259.03;;;18.90;100.00
38716;BME280;24833;49.324;8.694;2023-07-28T09:45:22;99255.28;;;18.96;100.00
38716;BME280;24833;49.324;8.694;2023-07-28T09:48:09;99255.03;;;19.02;100.00
38716;BME280;24833;49.324;8.694;2023-07-28T09:50:39;99247.75;;;19.08;100.00
38716;BME280;24833;49.324;8.694;2023-07-28T09:53:09;99245.84;;;19.09;100.00
38716;BME280;24833;49.324;8.694;2023-07-28T09:55:39;99248.03;;;19.07;100.00
38716;BME280;24833;49.324;8.694;2023-07-28T09:58:11;99254.25;;;19.07;100.00
38716;BME280;24833;49.324;8.694;2023-07-28T10:00:40;99254.75;;;19.04;100.00
38716;BME280;24833;49.324;8.694;2023-07-28T10:03:08;99255.03;;;19.02;100.00
38716;BME280;24833;49.324;8.694;2023-07-28T10:05:37;99263.41;;;19.01;100.00
38716;BME280;24833;49.324;8.694;2023-07-28T10:08:05;99255.81;;;18.98;100.00
38716;BME280;24833;49.324;8.694;2023-07-28T10:10:32;99264.97;;;18.92;100.00
38716;BME280;24833;49.324;8.694;2023-07-28T10:13:00;99267.41;;;18.88;100.00
38716;BME280;24833;49.324;8.694;2023-07-28T10:15:32;99272.53;;;18.85;100.00
38716;BME280;24833;49.324;8.694;2023-07-28T10:18:00;99262.78;;;18.84;100.00
38716;BME280;24833;49.324;8.694;2023-07-28T10:20:36;99266.03;;;18.81;100.00
38716;BME280;24833;49.324;8.694;2023-07-28T10:23:12;99268.47;;;18.82;100.00
38716;BME280;24833;49.324;8.694;2023-07-28T10:25:41;99275.22;;;18.85;100.00
38716;BME280;24833;49.324;8.694;2023-07-28T10:30:55;99279.59;;;18.91;100.00
38716;BME280;24833;49.324;8.694;2023-07-28T10:33:32;99279.59;;;18.91;100.00
38716;BME280;24833;49.324;8.694;2023-07-28T10:36:33;99283.38;;;18.90;100.00
38716;BME280;24833;49.324;8.694;2023-07-28T10:41:35;99287.44;;;18.92;100.00
38716;BME280;24833;49.324;8.694;2023-07-28T10:44:02;99288.28;;;18.93;100.00
38716;BME280;24833;49.324;8.694;2023-07-28T10:46:29;99282.34;;;18.96;100.00
38716;BME280;24833;49.324;8.694;2023-07-28T10:49:05;99276.66;;;18.97;100.00
38716;BME280;24833;49.324;8.694;2023-07-28T10:51:32;99281.78;;;18.99;100.00
38716;BME280;24833;49.324;8.694;2023-07-28T10:54:02;99291.31;;;19.01;100.00
38716;BME280;24833;49.324;8.694;2023-07-28T10:56:29;99284.53;;;19.04;100.00
38716;BME280;24833;49.324;8.694;2023-07-28T10:59:02;99289.94;;;19.04;100.00
38716;BME280;24833;49.324;8.694;2023-07-28T11:01:41;99294.28;;;19.05;100.00
38716;BME280;24833;49.324;8.694;2023-07-28T11:04:16;99288.06;;;19.04;100.00
38716;BME280;24833;49.324;8.694;2023-07-28T11:06:49;99282.09;;;19.02;100.00
38716;BME280;24833;49.324;8.694;2023-07-28T11:09:18;99287.78;;;19.01;100.00
38716;BME280;24833;49.324;8.694;2023-07-28T11:11:46;99292.63;;;18.99;100.00
38716;BME280;24833;49.324;8.694;2023-07-28T11:14:16;99295.59;;;18.97;100.00
38716;BME280;24833;49.324;8.694;2023-07-28T11:16:45;99286.13;;;18.95;100.00
38716;BME280;24833;49.324;8.694;2023-07-28T11:19:14;99282.88;;;18.93;100.00
38716;BME280;24833;49.324;8.694;2023-07-28T11:21:43;99291.00;;;18.93;100.00
38716;BME280;24833;49.324;8.694;2023-07-28T11:24:11;99295.81;;;18.91;100.00
38716;BME280;24833;49.324;8.694;2023-07-28T11:26:39;99287.44;;;18.92;100.00
38716;BME280;24833;49.324;8.694;2023-07-28T11:29:07;99283.69;;;18.93;100.00
38716;BME280;24833;49.324;8.694;2023-07-28T11:31:34;99289.38;;;18.97;100.00
38716;BME280;24833;49.324;8.694;2023-07-28T11:34:02;99280.16;;;18.98;100.00
38716;BME280;24833;49.324;8.694;2023-07-28T11:36:30;99288.84;;;19.00;100.00
38716;BME280;24833;49.324;8.694;2023-07-28T11:38:59;99290.47;;;19.01;100.00
38716;BME280;24833;49.324;8.694;2023-07-28T11:41:27;99294.28;;;19.05;100.00
38716;BME280;24833;49.324;8.694;2023-07-28T11:43:55;99295.09;;;19.05;100.00
38716;BME280;24833;49.324;8.694;2023-07-28T11:46:42;99289.44;;;19.07;100.00
38716;BME280;24833;49.324;8.694;2023-07-28T11:49:18;99293.78;;;19.08;100.00
38716;BME280;24833;49.324;8.694;2023-07-28T11:51:51;99299.44;;;19.12;100.00
38716;BME280;24833;49.324;8.694;2023-07-28T11:54:22;99302.97;;;19.12;100.00
38716;BME280;24833;49.324;8.694;2023-07-28T11:56:56;99305.69;;;19.12;100.00
38716;BME280;24833;49.324;8.694;2023-07-28T11:59:24;99305.44;;;19.14;100.00
38716;BME280;24833;49.324;8.694;2023-07-28T12:02:00;99307.88;;;19.15;100.00
38716;BME280;24833;49.324;8.694;2023-07-28T12:04:34;99314.09;;;19.16;100.00
38716;BME280;24833;49.324;8.694;2023-07-28T12:07:11;99299.75;;;19.15;100.00
38716;BME280;24833;49.324;8.694;2023-07-28T12:09:50;99306.25;;;19.14;100.00
38716;BME280;24833;49.324;8.694;2023-07-28T12:12:23;99307.06;;;19.15;100.00
38716;BME280;24833;49.324;8.694;2023-07-28T12:14:52;99312.47;;;19.15;100.00
38716;BME280;24833;49.324;8.694;2023-07-28T12:17:25;99310.03;;;19.13;100.00
38716;BME280;24833;49.324;8.694;2023-07-28T12:20:14;99306.75;;;19.11;100.00
38716;BME280;24833;49.324;8.694;2023-07-28T12:22:44;99308.13;;;19.09;100.00
38716;BME280;24833;49.324;8.694;2023-07-28T12:25:12;99308.13;;;19.09;100.00
38716;BME280;24833;49.324;8.694;2023-07-28T12:27:39;99307.31;;;19.08;100.00
38716;BME280;24833;49.324;8.694;2023-07-28T12:30:07;99311.91;;;19.08;100.00
38716;BME280;24833;49.324;8.694;2023-07-28T12:32:42;99314.03;;;19.05;100.00
38716;BME280;24833;49.324;8.694;2023-07-28T12:35:30;99313.50;;;19.03;100.00
38716;BME280;24833;49.324;8.694;2023-07-28T12:38:05;99317.56;;;19.01;100.00
38716;BME280;24833;49.324;8.694;2023-07-28T12:40:35;99316.44;;;18.97;100.00
38716;BME280;24833;49.324;8.694;2023-07-28T12:43:05;99313.19;;;18.95;100.00
38716;BME280;24833;49.324;8.694;2023-07-28T12:45:34;99315.34;;;18.93;100.00
38716;BME280;24833;49.324;8.694;2023-07-28T12:48:04;99317.19;;;18.87;100.00
38716;BME280;24833;49.324;8.694;2023-07-28T12:50:31;99326.63;;;18.85;100.00
38716;BME280;24833;49.324;8.694;2023-07-28T12:53:07;99328.78;;;18.83;100.00
38716;BME280;24833;49.324;8.694;2023-07-28T12:55:43;99328.25;;;18.81;100.00
38716;BME280;24833;49.324;8.694;2023-07-28T12:58:13;99332.03;;;18.80;100.00
38716;BME280;24833;49.324;8.694;2023-07-28T13:00:44;99333.09;;;18.78;100.00
38716;BME280;24833;49.324;8.694;2023-07-28T13:03:14;99328.75;;;18.77;100.00
38716;BME280;24833;49.324;8.694;2023-07-28T13:05:41;99334.97;;;18.78;100.00
38716;BME280;24833;49.324;8.694;2023-07-28T13:08:13;99339.56;;;18.77;100.00
38716;BME280;24833;49.324;8.694;2023-07-28T13:10:40;99330.91;;;18.75;100.00
38716;BME280;24833;49.324;8.694;2023-07-28T13:13:10;99341.75;;;18.75;100.00